Time;durP1;ratioP1;P1;durP2;ratioP2;P2;SDS_P1;SDS_P2;PMS_P1;PMS_P2;Temp;Humidity;BMP_temperature;BMP_pressure;BME280_temperature;BME280_humidity;BME280_pressure;Samples;Min_cycle;Max_cycle;Signal;HPM_P1;HPM_P2
2023/11/11 00:00:41;;;;;;;27.15;20.35;;;9.30;99.90;;;;;;5006106;28;20587;-73
2023/11/11 00:03:08;;;;;;;24.70;19.80;;;9.30;99.90;;;;;;5014491;28;20197;-74
2023/11/11 00:05:35;;;;;;;22.17;18.17;;;9.20;99.90;;;;;;5005902;28;20209;-70
2023/11/11 00:08:02;;;;;;;30.20;19.83;;;9.20;99.90;;;;;;5011276;28;20317;-72
2023/11/11 00:10:29;;;;;;;29.20;20.73;;;9.30;99.90;;;;;;5004143;28;20210;-70
2023/11/11 00:12:57;;;;;;;25.90;17.85;;;9.30;99.90;;;;;;5003396;28;20236;-70
2023/11/11 00:15:27;;;;;;;28.15;19.92;;;9.20;99.90;;;;;;5003367;28;20228;-73
2023/11/11 00:17:53;;;;;;;26.33;22.60;;;9.20;99.90;;;;;;5006636;28;20207;-76
2023/11/11 00:20:22;;;;;;;35.10;20.92;;;9.20;99.90;;;;;;5013717;28;20288;-73
2023/11/11 00:22:52;;;;;;;28.38;21.83;;;9.20;99.90;;;;;;5013252;28;20336;-74
2023/11/11 00:25:20;;;;;;;28.67;20.98;;;9.20;99.90;;;;;;5013157;28;20592;-73
2023/11/11 00:27:47;;;;;;;26.90;19.38;;;9.10;99.90;;;;;;5012669;28;20296;-76
2023/11/11 00:30:16;;;;;;;22.75;19.80;;;9.10;99.90;;;;;;5009043;28;20284;-72
2023/11/11 00:32:50;;;;;;;26.75;22.00;;;9.10;99.90;;;;;;5010996;28;20205;-74
2023/11/11 00:35:17;;;;;;;28.02;19.20;;;9.10;99.90;;;;;;4980261;28;20229;-71
2023/11/11 00:37:46;;;;;;;27.65;21.45;;;9.10;99.90;;;;;;5009717;28;20209;-70
2023/11/11 00:40:13;;;;;;;35.22;21.80;;;9.10;99.90;;;;;;5014998;28;20200;-75
2023/11/11 00:42:41;;;;;;;26.58;21.58;;;9.10;99.90;;;;;;5008891;28;20205;-73
2023/11/11 00:45:09;;;;;;;32.25;24.77;;;9.10;99.90;;;;;;5010045;28;20668;-72
2023/11/11 00:47:37;;;;;;;26.52;21.55;;;9.20;99.90;;;;;;5013109;28;20229;-72
2023/11/11 00:50:09;;;;;;;34.20;23.08;;;9.10;99.90;;;;;;5000764;28;20203;-73
2023/11/11 00:52:36;;;;;;;31.50;22.35;;;9.20;99.90;;;;;;5008193;28;20202;-72
2023/11/11 00:55:03;;;;;;;24.73;19.60;;;9.20;99.90;;;;;;5001096;28;20705;-72
2023/11/11 00:57:31;;;;;;;24.35;17.80;;;9.20;99.90;;;;;;5002861;28;20233;-73
2023/11/11 00:59:58;;;;;;;28.38;21.05;;;9.30;99.90;;;;;;5007761;28;20209;-76
2023/11/11 01:02:25;;;;;;;29.40;19.33;;;9.30;99.90;;;;;;5009832;28;20613;-73
2023/11/11 01:04:52;;;;;;;29.33;21.27;;;9.40;99.90;;;;;;5011547;28;20229;-72
2023/11/11 01:07:20;;;;;;;33.00;21.98;;;9.40;99.90;;;;;;5006732;28;20224;-69
2023/11/11 01:09:47;;;;;;;35.50;21.23;;;9.50;99.90;;;;;;5009035;28;20301;-74
2023/11/11 01:12:14;;;;;;;32.55;20.73;;;9.40;99.90;;;;;;5005591;28;20232;-76
2023/11/11 01:14:41;;;;;;;25.45;18.30;;;9.40;99.90;;;;;;4999198;28;20711;-75
2023/11/11 01:17:09;;;;;;;28.65;22.00;;;9.50;99.90;;;;;;5012372;28;20201;-73
2023/11/11 01:19:36;;;;;;;25.50;19.60;;;9.50;99.90;;;;;;5010788;28;20240;-72
2023/11/11 01:22:03;;;;;;;31.90;20.10;;;9.50;99.90;;;;;;5014409;28;20737;-75
2023/11/11 01:24:32;;;;;;;23.52;16.63;;;9.60;99.90;;;;;;5015518;28;20721;-72
2023/11/11 01:26:59;;;;;;;26.88;19.65;;;9.50;99.90;;;;;;5003702;28;20226;-72
2023/11/11 01:29:30;;;;;;;24.75;20.25;;;9.60;99.90;;;;;;5006266;28;20647;-73
2023/11/11 01:31:56;;;;;;;28.20;19.15;;;9.60;99.90;;;;;;5016674;28;20208;-71
2023/11/11 01:34:23;;;;;;;25.60;18.23;;;9.60;99.90;;;;;;5005146;28;20276;-75
2023/11/11 01:36:50;;;;;;;24.67;19.27;;;9.60;99.90;;;;;;5009047;28;20243;-71
2023/11/11 01:39:17;;;;;;;24.65;17.65;;;9.60;99.90;;;;;;5016534;28;20196;-73
2023/11/11 01:41:45;;;;;;;25.33;19.60;;;9.60;99.90;;;;;;5016619;28;20628;-70
2023/11/11 01:44:12;;;;;;;21.45;18.38;;;9.60;99.90;;;;;;5009638;28;20220;-71
2023/11/11 01:46:39;;;;;;;31.80;19.80;;;9.60;99.90;;;;;;5003020;28;20206;-76
2023/11/11 01:49:06;;;;;;;31.65;18.83;;;9.60;99.90;;;;;;5007779;28;20223;-72
2023/11/11 01:51:35;;;;;;;27.45;18.98;;;9.50;99.90;;;;;;5005992;28;20229;-73
2023/11/11 01:54:05;;;;;;;22.27;16.52;;;9.60;99.90;;;;;;5002784;28;20223;-72
2023/11/11 01:56:32;;;;;;;30.15;20.52;;;9.60;99.90;;;;;;4999565;28;20744;-72
2023/11/11 01:59:01;;;;;;;30.05;20.67;;;9.60;99.90;;;;;;5015264;28;20710;-70
2023/11/11 02:01:28;;;;;;;27.00;20.65;;;9.60;99.90;;;;;;5001047;28;20209;-71
2023/11/11 02:03:55;;;;;;;27.98;20.88;;;9.60;99.90;;;;;;5006195;28;20980;-76
2023/11/11 02:06:22;;;;;;;38.22;21.48;;;9.50;99.90;;;;;;5015405;28;20636;-73
2023/11/11 02:08:50;;;;;;;34.83;21.48;;;9.50;99.90;;;;;;5012435;28;20227;-72
2023/11/11 02:11:17;;;;;;;28.48;20.48;;;9.50;99.90;;;;;;5007622;28;20268;-74
2023/11/11 02:13:44;;;;;;;26.38;18.60;;;9.40;99.90;;;;;;5012086;28;20639;-72
2023/11/11 02:16:13;;;;;;;31.10;23.00;;;9.50;99.90;;;;;;5014776;28;20284;-72
2023/11/11 02:18:41;;;;;;;28.33;19.67;;;9.40;99.90;;;;;;5019304;28;20199;-75
2023/11/11 02:21:08;;;;;;;30.17;21.83;;;9.50;99.90;;;;;;5014690;28;20280;-76
2023/11/11 02:23:37;;;;;;;29.17;23.58;;;9.40;99.90;;;;;;5015845;28;20619;-70
2023/11/11 02:26:05;;;;;;;31.50;24.83;;;9.40;99.90;;;;;;5012149;28;20292;-70
2023/11/11 02:28:33;;;;;;;38.70;24.33;;;9.40;99.90;;;;;;5015345;28;20243;-74
2023/11/11 02:31:00;;;;;;;37.40;25.80;;;9.40;99.90;;;;;;5015300;28;20252;-74
2023/11/11 02:33:27;;;;;;;38.83;25.30;;;9.30;99.90;;;;;;5013327;28;20225;-72
2023/11/11 02:35:54;;;;;;;35.00;25.30;;;9.30;99.90;;;;;;5013739;28;20652;-70
2023/11/11 02:38:23;;;;;;;37.00;23.83;;;9.30;99.90;;;;;;5015474;28;20193;-74
2023/11/11 02:40:51;;;;;;;36.97;25.30;;;9.30;99.90;;;;;;5013358;28;20212;-73
2023/11/11 02:43:18;;;;;;;34.75;25.27;;;9.30;99.90;;;;;;5013678;28;20203;-73
2023/11/11 02:45:46;;;;;;;28.30;22.42;;;9.30;99.90;;;;;;5014785;28;20556;-74
2023/11/11 02:48:13;;;;;;;36.55;24.80;;;9.20;99.90;;;;;;5014253;28;20214;-76
2023/11/11 02:50:39;;;;;;;32.45;22.48;;;9.20;99.90;;;;;;5022651;28;20255;-74
2023/11/11 02:53:06;;;;;;;38.00;24.13;;;9.20;99.90;;;;;;4998954;28;20213;-71
2023/11/11 02:55:33;;;;;;;29.23;21.05;;;9.20;99.90;;;;;;5002936;28;20204;-70
2023/11/11 02:58:02;;;;;;;36.10;25.80;;;9.30;99.90;;;;;;5014188;28;20747;-74
2023/11/11 03:00:29;;;;;;;39.63;26.50;;;9.30;99.90;;;;;;5016544;28;20208;-73
2023/11/11 03:02:56;;;;;;;28.63;20.75;;;9.20;99.90;;;;;;5002961;28;20205;-73
2023/11/11 03:05:23;;;;;;;40.70;26.35;;;9.20;99.90;;;;;;5005728;28;20591;-73
2023/11/11 03:07:52;;;;;;;33.85;24.20;;;9.30;99.90;;;;;;5006820;28;20255;-72
2023/11/11 03:10:19;;;;;;;33.22;23.15;;;9.20;99.90;;;;;;5008164;28;20208;-72
2023/11/11 03:12:46;;;;;;;45.45;28.90;;;9.30;99.90;;;;;;5008966;28;20250;-71
2023/11/11 03:15:15;;;;;;;35.17;23.92;;;9.30;99.90;;;;;;5009776;28;20575;-73
2023/11/11 03:17:44;;;;;;;39.90;28.27;;;9.40;99.90;;;;;;5016611;28;20589;-74
2023/11/11 03:20:12;;;;;;;45.67;27.73;;;9.30;99.90;;;;;;5011733;28;20205;-70
2023/11/11 03:22:39;;;;;;;40.35;27.15;;;9.30;99.90;;;;;;5011648;28;20609;-74
2023/11/11 03:25:08;;;;;;;36.70;26.25;;;9.30;99.90;;;;;;5014253;28;20699;-70
2023/11/11 03:27:35;;;;;;;40.47;26.20;;;9.30;99.90;;;;;;5013707;28;20593;-73
2023/11/11 03:30:03;;;;;;;37.42;27.60;;;9.30;99.90;;;;;;5014105;28;20288;-72
2023/11/11 03:32:31;;;;;;;39.22;28.58;;;9.40;99.90;;;;;;5009495;28;20669;-73
2023/11/11 03:34:58;;;;;;;44.28;29.83;;;9.30;99.90;;;;;;5007741;28;20713;-73
2023/11/11 03:37:25;;;;;;;39.97;27.02;;;9.30;99.90;;;;;;5005408;28;20608;-69
2023/11/11 03:39:53;;;;;;;46.80;29.30;;;9.20;99.90;;;;;;5020558;28;20197;-70
2023/11/11 03:42:20;;;;;;;31.88;24.17;;;9.30;99.90;;;;;;5014713;28;20201;-75
2023/11/11 03:44:48;;;;;;;36.45;25.70;;;9.30;99.90;;;;;;5013944;28;20225;-74
2023/11/11 03:47:14;;;;;;;40.55;26.00;;;9.20;99.90;;;;;;5018026;28;20224;-73
2023/11/11 03:49:43;;;;;;;50.17;30.08;;;9.20;99.90;;;;;;5012754;28;20213;-73
2023/11/11 03:52:10;;;;;;;42.75;27.83;;;9.30;99.90;;;;;;5025229;28;20209;-71
2023/11/11 03:54:39;;;;;;;45.03;29.98;;;9.40;99.90;;;;;;5005156;28;20228;-71
2023/11/11 03:57:06;;;;;;;54.33;30.33;;;9.30;99.90;;;;;;5020773;28;20299;-74
2023/11/11 03:59:37;;;;;;;47.20;29.60;;;9.30;99.90;;;;;;5023765;28;20201;-73
2023/11/11 04:02:04;;;;;;;48.15;29.20;;;9.30;99.90;;;;;;5031345;22;20233;-83
2023/11/11 04:04:32;;;;;;;41.90;27.52;;;9.20;99.90;;;;;;4999355;28;20278;-83
2023/11/11 04:07:00;;;;;;;52.30;31.98;;;9.20;99.90;;;;;;5007513;28;20210;-82
2023/11/11 04:09:30;;;;;;;43.83;28.10;;;9.30;99.90;;;;;;5015794;28;20260;-84
2023/11/11 04:11:57;;;;;;;51.33;28.92;;;9.30;99.90;;;;;;5001637;28;20217;-84
2023/11/11 04:14:23;;;;;;;31.73;24.20;;;9.30;99.90;;;;;;5004641;28;20206;-84
2023/11/11 04:16:50;;;;;;;45.88;29.17;;;9.30;99.90;;;;;;5005768;28;20197;-83
2023/11/11 04:19:18;;;;;;;49.95;29.65;;;9.30;99.90;;;;;;5001339;28;20210;-83
2023/11/11 04:21:49;;;;;;;45.13;26.83;;;9.30;99.90;;;;;;5011060;28;20225;-83
2023/11/11 04:24:17;;;;;;;47.75;29.95;;;9.30;99.90;;;;;;4991965;28;20274;-84
2023/11/11 04:26:44;;;;;;;48.05;29.15;;;9.30;99.90;;;;;;5011491;28;20566;-84
2023/11/11 04:29:11;;;;;;;52.95;30.70;;;9.30;99.90;;;;;;5008836;28;20221;-84
2023/11/11 04:31:38;;;;;;;44.25;29.08;;;9.20;99.90;;;;;;5007470;28;20219;-84
2023/11/11 04:34:05;;;;;;;48.08;30.58;;;9.20;99.90;;;;;;5001032;28;20262;-83
2023/11/11 04:36:32;;;;;;;48.45;30.95;;;9.20;99.90;;;;;;5003263;28;20210;-84
2023/11/11 04:38:59;;;;;;;51.53;31.20;;;9.20;99.90;;;;;;5013013;28;20710;-84
2023/11/11 04:41:28;;;;;;;62.00;34.42;;;9.20;99.90;;;;;;5005473;28;20225;-82
2023/11/11 04:43:55;;;;;;;53.20;31.73;;;9.10;99.90;;;;;;5012748;28;20196;-84
2023/11/11 04:46:22;;;;;;;44.72;29.15;;;9.10;99.90;;;;;;4995635;28;20229;-83
2023/11/11 04:48:48;;;;;;;46.28;30.88;;;9.20;99.90;;;;;;5019502;28;20288;-84
2023/11/11 04:51:16;;;;;;;51.03;29.23;;;9.10;99.90;;;;;;5014263;28;20568;-84
2023/11/11 04:53:43;;;;;;;44.50;29.40;;;9.10;99.90;;;;;;5005106;28;20260;-84
2023/11/11 04:56:09;;;;;;;45.97;28.58;;;9.10;99.90;;;;;;5010586;28;20289;-84
2023/11/11 04:58:38;;;;;;;50.83;29.80;;;9.10;99.90;;;;;;5001477;28;20546;-83
2023/11/11 05:01:05;;;;;;;48.20;29.52;;;9.10;99.90;;;;;;5012400;28;20255;-84
2023/11/11 05:03:32;;;;;;;40.33;27.17;;;9.10;99.90;;;;;;5009081;28;20256;-83
2023/11/11 05:05:59;;;;;;;47.15;29.30;;;9.10;99.90;;;;;;5019259;28;20264;-83
2023/11/11 05:08:26;;;;;;;46.97;29.73;;;9.20;99.90;;;;;;4996569;28;20615;-83
2023/11/11 05:10:55;;;;;;;50.97;28.83;;;9.10;99.90;;;;;;5003103;28;20209;-85
2023/11/11 05:13:22;;;;;;;42.95;27.95;;;9.10;99.90;;;;;;5014401;28;20255;-83
2023/11/11 05:15:59;;;;;;;48.92;28.05;;;9.10;99.90;;;;;;5000418;28;20234;-84
2023/11/11 05:18:26;;;;;;;48.67;28.63;;;9.10;99.90;;;;;;4989144;28;20209;-84
2023/11/11 05:20:53;;;;;;;42.80;27.98;;;9.10;99.90;;;;;;4986602;28;20602;-84
2023/11/11 05:23:20;;;;;;;39.92;25.85;;;9.00;99.90;;;;;;5004008;28;20245;-85
2023/11/11 05:25:47;;;;;;;43.20;27.95;;;9.10;99.90;;;;;;4993453;28;20214;-83
2023/11/11 05:28:14;;;;;;;41.97;27.00;;;9.10;99.90;;;;;;4992860;28;20676;-85
2023/11/11 05:30:41;;;;;;;40.88;25.90;;;9.10;99.90;;;;;;4992628;28;20206;-84
2023/11/11 05:33:09;;;;;;;41.15;27.33;;;9.00;99.90;;;;;;4998301;28;20288;-83
2023/11/11 05:35:37;;;;;;;41.35;26.58;;;9.00;99.90;;;;;;5013341;28;20186;-81
2023/11/11 05:38:04;;;;;;;44.83;26.42;;;9.10;99.90;;;;;;5015545;28;20251;-83
2023/11/11 05:40:31;;;;;;;36.35;23.52;;;9.00;99.90;;;;;;5017167;28;20225;-83
2023/11/11 05:43:00;;;;;;;38.72;24.70;;;9.00;99.90;;;;;;4999096;28;20215;-83
2023/11/11 05:45:26;;;;;;;38.80;25.50;;;8.80;99.90;;;;;;4984823;28;20491;-84
2023/11/11 05:47:53;;;;;;;32.60;22.48;;;8.90;99.90;;;;;;4998246;28;20292;-83
2023/11/11 05:50:21;;;;;;;33.65;22.20;;;8.90;99.90;;;;;;4981152;28;20253;-84
2023/11/11 05:52:49;;;;;;;31.75;20.10;;;8.80;99.90;;;;;;4995295;28;20240;-84
2023/11/11 05:55:17;;;;;;;27.80;18.73;;;8.80;99.90;;;;;;4998369;28;20221;-84
2023/11/11 05:57:43;;;;;;;29.25;19.33;;;8.80;99.90;;;;;;5002371;28;20249;-84
2023/11/11 06:00:13;;;;;;;25.88;18.70;;;8.80;99.90;;;;;;5000131;28;20257;-81
2023/11/11 06:02:40;;;;;;;33.80;17.38;;;8.80;99.90;;;;;;5017223;28;20214;-82
2023/11/11 06:05:08;;;;;;;25.85;16.35;;;8.80;99.90;;;;;;5016371;28;20209;-81
2023/11/11 06:07:37;;;;;;;19.02;13.98;;;8.90;99.90;;;;;;5013049;28;20186;-82
2023/11/11 06:10:04;;;;;;;24.70;15.77;;;8.90;99.90;;;;;;5012356;28;20237;-83
2023/11/11 06:12:32;;;;;;;21.88;16.13;;;8.80;99.90;;;;;;4993353;28;20244;-83
2023/11/11 06:14:58;;;;;;;30.60;16.98;;;8.80;99.90;;;;;;4987104;28;20741;-83
2023/11/11 06:17:25;;;;;;;21.15;15.02;;;8.80;99.90;;;;;;5003914;28;20193;-84
2023/11/11 06:19:54;;;;;;;20.30;12.82;;;8.70;99.90;;;;;;4991192;28;20669;-83
2023/11/11 06:22:21;;;;;;;25.10;12.85;;;8.70;99.90;;;;;;5004811;28;20226;-84
2023/11/11 06:24:49;;;;;;;25.48;13.55;;;8.70;99.90;;;;;;5020319;28;20209;-85
2023/11/11 06:27:16;;;;;;;19.98;13.00;;;8.60;99.90;;;;;;5004220;28;20234;-83
2023/11/11 06:29:43;;;;;;;21.33;12.90;;;8.60;99.90;;;;;;5001560;28;20478;-84
2023/11/11 06:32:10;;;;;;;15.02;10.98;;;8.60;99.90;;;;;;4998718;28;20245;-82
2023/11/11 06:34:37;;;;;;;17.15;9.95;;;8.60;99.90;;;;;;4995809;28;20205;-84
2023/11/11 06:37:04;;;;;;;19.15;11.23;;;8.50;99.90;;;;;;4985804;28;20295;-84
2023/11/11 06:39:32;;;;;;;15.35;10.23;;;8.50;99.90;;;;;;4987688;28;20316;-84
2023/11/11 06:42:00;;;;;;;20.05;9.93;;;8.40;99.90;;;;;;4992172;28;20226;-83
2023/11/11 06:44:27;;;;;;;19.45;12.20;;;8.40;99.90;;;;;;4998616;28;20209;-85
2023/11/11 06:46:54;;;;;;;16.48;8.88;;;8.40;99.90;;;;;;4993361;28;20209;-83
2023/11/11 06:49:20;;;;;;;14.85;9.65;;;8.40;99.90;;;;;;4989184;28;20683;-83
2023/11/11 06:51:47;;;;;;;14.75;10.20;;;8.50;99.90;;;;;;4996319;28;20256;-86
2023/11/11 06:54:14;;;;;;;12.98;7.70;;;8.40;99.90;;;;;;4991187;28;20256;-85
2023/11/11 06:56:41;;;;;;;12.60;7.40;;;8.50;99.90;;;;;;4993982;28;20204;-85
2023/11/11 06:59:09;;;;;;;11.43;6.95;;;8.40;99.90;;;;;;4986510;28;20205;-83
2023/11/11 07:01:37;;;;;;;13.02;6.47;;;8.50;99.90;;;;;;4989816;28;20340;-83
2023/11/11 07:04:04;;;;;;;8.65;6.00;;;8.50;99.90;;;;;;4986116;28;20207;-83
2023/11/11 07:06:31;;;;;;;8.73;5.10;;;8.50;99.90;;;;;;4994718;28;20209;-83
2023/11/11 07:08:58;;;;;;;9.23;5.03;;;8.50;99.90;;;;;;4988332;28;20304;-83
2023/11/11 07:11:26;;;;;;;5.55;5.00;;;8.40;99.90;;;;;;4994780;28;20211;-83
2023/11/11 07:13:55;;;;;;;5.78;3.50;;;8.40;99.90;;;;;;4988750;28;20655;-83
2023/11/11 07:16:23;;;;;;;7.82;5.03;;;8.40;99.90;;;;;;5000075;28;20245;-84
2023/11/11 07:18:50;;;;;;;9.43;4.55;;;8.30;99.90;;;;;;4987621;28;20194;-83
2023/11/11 07:21:21;;;;;;;9.32;4.47;;;8.30;99.90;;;;;;4994143;28;20202;-83
2023/11/11 07:23:48;;;;;;;7.38;4.25;;;8.50;99.90;;;;;;5002693;28;20202;-84
2023/11/11 07:26:16;;;;;;;8.32;5.45;;;8.30;99.90;;;;;;4998014;28;20201;-84
2023/11/11 07:28:43;;;;;;;13.10;4.18;;;8.30;99.90;;;;;;5003202;28;20234;-85
2023/11/11 07:31:10;;;;;;;5.20;3.58;;;8.40;99.90;;;;;;4991958;28;20198;-84
2023/11/11 07:33:38;;;;;;;4.32;3.60;;;8.40;99.90;;;;;;4996852;28;20225;-84
2023/11/11 07:36:07;;;;;;;7.47;3.80;;;8.40;99.90;;;;;;4994741;28;20206;-84
2023/11/11 07:38:34;;;;;;;4.55;3.45;;;8.40;99.90;;;;;;4988817;28;20214;-84
2023/11/11 07:41:01;;;;;;;5.35;3.42;;;8.30;99.90;;;;;;5002708;28;20202;-83
2023/11/11 07:43:28;;;;;;;4.80;3.03;;;8.40;99.90;;;;;;4990505;28;20237;-84
2023/11/11 07:45:55;;;;;;;4.60;3.03;;;8.50;99.90;;;;;;4992054;28;20278;-83
2023/11/11 07:48:22;;;;;;;7.25;3.10;;;8.50;99.90;;;;;;4994823;28;20226;-84
2023/11/11 07:50:50;;;;;;;5.68;3.90;;;8.40;99.90;;;;;;4990177;28;20208;-84
2023/11/11 07:53:17;;;;;;;4.28;3.75;;;8.50;99.90;;;;;;4985341;28;20261;-83
2023/11/11 07:55:44;;;;;;;5.80;2.90;;;8.50;99.90;;;;;;4993692;28;20206;-83
2023/11/11 07:58:11;;;;;;;5.13;2.63;;;8.50;99.90;;;;;;4998738;28;20845;-83
2023/11/11 08:00:39;;;;;;;4.38;2.40;;;8.50;99.90;;;;;;4993520;28;20651;-83
2023/11/11 08:03:07;;;;;;;8.20;3.20;;;8.60;99.90;;;;;;5010242;28;20295;-84
2023/11/11 08:05:33;;;;;;;3.65;2.40;;;8.60;99.90;;;;;;5001374;28;20214;-83
2023/11/11 08:08:01;;;;;;;8.95;2.33;;;8.50;99.90;;;;;;4988131;28;20220;-83
2023/11/11 08:10:28;;;;;;;4.25;2.50;;;8.50;99.90;;;;;;4997576;28;20313;-84
2023/11/11 08:12:56;;;;;;;2.45;1.73;;;8.50;99.90;;;;;;4988641;28;20226;-84
2023/11/11 08:15:23;;;;;;;4.75;2.53;;;8.60;99.90;;;;;;4988528;28;20202;-82
2023/11/11 08:17:50;;;;;;;3.47;1.95;;;8.60;99.90;;;;;;4986738;28;20198;-83
2023/11/11 08:20:23;;;;;;;4.07;1.85;;;8.60;99.90;;;;;;4985416;28;20253;-83
2023/11/11 08:22:50;;;;;;;7.53;2.25;;;8.50;99.90;;;;;;4989422;28;20712;-83
2023/11/11 08:25:22;;;;;;;2.08;1.70;;;8.50;99.90;;;;;;4984155;28;20198;-83
2023/11/11 08:27:50;;;;;;;3.22;2.10;;;8.50;99.90;;;;;;4985296;28;20202;-82
2023/11/11 08:30:17;;;;;;;5.97;1.70;;;8.60;99.90;;;;;;4983391;28;20431;-83
2023/11/11 08:32:44;;;;;;;2.28;1.20;;;8.60;99.90;;;;;;4984091;28;20309;-85
2023/11/11 08:35:15;;;;;;;10.68;2.33;;;8.70;99.90;;;;;;4988406;28;20202;-84
2023/11/11 08:37:42;;;;;;;3.90;1.65;;;8.70;99.90;;;;;;4988951;28;20210;-83
2023/11/11 08:40:11;;;;;;;2.05;1.85;;;8.80;99.90;;;;;;4986445;28;20213;-86
2023/11/11 08:42:40;;;;;;;2.92;1.27;;;8.70;99.90;;;;;;4986478;28;20233;-84
2023/11/11 08:45:09;;;;;;;2.97;2.40;;;8.90;99.90;;;;;;4996766;28;20221;-86
2023/11/11 08:47:36;;;;;;;4.05;2.60;;;8.80;99.90;;;;;;5014645;28;20243;-86
2023/11/11 08:50:06;;;;;;;3.72;1.80;;;8.80;99.90;;;;;;4996075;28;20218;-84
2023/11/11 08:52:43;;;;;;;1.80;1.30;;;8.80;99.90;;;;;;4988190;28;20226;-87
2023/11/11 08:55:16;;;;;;;3.80;1.55;;;8.90;99.90;;;;;;5003553;28;20209;-85
2023/11/11 08:57:44;;;;;;;2.25;1.30;;;8.90;99.90;;;;;;4997505;28;20234;-81
2023/11/11 09:00:12;;;;;;;2.22;1.35;;;9.00;99.90;;;;;;4995700;28;20309;-83
2023/11/11 09:02:41;;;;;;;3.33;1.25;;;9.00;99.90;;;;;;5007920;23;20225;-73
2023/11/11 09:05:09;;;;;;;1.88;1.33;;;9.00;99.90;;;;;;4974775;28;20253;-73
2023/11/11 09:07:36;;;;;;;4.63;1.33;;;9.00;99.90;;;;;;4971193;28;20290;-76
2023/11/11 09:10:04;;;;;;;2.60;1.27;;;9.10;99.90;;;;;;4974215;28;20257;-71
2023/11/11 09:12:31;;;;;;;7.38;1.60;;;9.10;99.90;;;;;;4972985;28;20210;-73
2023/11/11 09:15:00;;;;;;;1.48;1.10;;;9.10;99.90;;;;;;4966435;28;20226;-70
2023/11/11 09:17:28;;;;;;;1.77;1.23;;;9.10;99.90;;;;;;4972489;28;20613;-74
2023/11/11 09:19:54;;;;;;;1.65;1.00;;;9.10;99.90;;;;;;4970587;28;20218;-72
2023/11/11 09:22:24;;;;;;;2.67;1.63;;;9.20;99.90;;;;;;4972482;28;20257;-73
2023/11/11 09:24:51;;;;;;;5.93;1.65;;;9.40;99.90;;;;;;4965716;28;20217;-72
2023/11/11 09:27:18;;;;;;;4.57;1.20;;;9.30;99.90;;;;;;4971897;28;20198;-75
2023/11/11 09:29:45;;;;;;;2.50;1.67;;;9.20;99.90;;;;;;4965373;28;20732;-71
2023/11/11 09:32:15;;;;;;;2.45;2.00;;;9.30;99.90;;;;;;4965148;28;20370;-69
2023/11/11 09:34:43;;;;;;;3.30;1.50;;;9.30;99.90;;;;;;4967751;28;20228;-71
2023/11/11 09:37:11;;;;;;;2.60;1.80;;;9.30;99.90;;;;;;4967612;28;20202;-71
2023/11/11 09:39:38;;;;;;;3.40;1.65;;;9.30;99.90;;;;;;4975121;28;20199;-74
2023/11/11 09:42:07;;;;;;;2.42;1.55;;;9.30;99.90;;;;;;4973249;28;20287;-72
2023/11/11 09:44:34;;;;;;;3.85;1.70;;;9.20;99.90;;;;;;4979099;28;20258;-72
2023/11/11 09:47:03;;;;;;;3.63;2.00;;;9.20;99.90;;;;;;4970551;28;20288;-74
2023/11/11 09:49:32;;;;;;;7.55;2.50;;;9.20;99.90;;;;;;4972477;28;20234;-74
2023/11/11 09:52:02;;;;;;;2.45;1.70;;;9.30;99.90;;;;;;4976679;28;20322;-75
2023/11/11 09:54:30;;;;;;;8.38;3.90;;;9.30;99.90;;;;;;4972262;28;20226;-73
2023/11/11 09:56:59;;;;;;;4.80;2.65;;;9.40;99.90;;;;;;4975503;28;20198;-71
2023/11/11 09:59:26;;;;;;;2.10;1.45;;;9.40;99.90;;;;;;4976554;28;20625;-70
2023/11/11 10:01:53;;;;;;;3.38;1.75;;;9.40;99.90;;;;;;4974514;28;20268;-70
2023/11/11 10:04:20;;;;;;;8.70;4.15;;;9.50;99.90;;;;;;4976534;28;20252;-72
2023/11/11 10:06:53;;;;;;;2.55;1.40;;;9.50;99.90;;;;;;4977407;28;20222;-69
2023/11/11 10:09:20;;;;;;;1.65;1.55;;;9.60;99.90;;;;;;4978122;28;20285;-70
2023/11/11 10:15:15;;;;;;;2.58;1.48;;;9.40;99.90;;;;;;4977036;28;20256;-72
2023/11/11 10:17:42;;;;;;;2.45;0.90;;;9.30;99.90;;;;;;4976385;28;20214;-72
2023/11/11 10:20:14;;;;;;;1.40;1.25;;;9.30;99.90;;;;;;4976578;28;20281;-72
2023/11/11 10:22:47;;;;;;;1.42;1.00;;;9.30;99.90;;;;;;4975201;28;20241;-74
2023/11/11 10:25:17;;;;;;;4.65;1.02;;;9.40;99.90;;;;;;4972583;28;20222;-72
2023/11/11 10:27:48;;;;;;;2.65;1.30;;;9.50;99.90;;;;;;4975717;28;20214;-71
2023/11/11 10:30:21;;;;;;;5.55;1.85;;;9.60;99.90;;;;;;4975624;28;20245;-71
2023/11/11 10:32:49;;;;;;;5.97;1.90;;;9.50;99.90;;;;;;4975085;28;20216;-70
2023/11/11 10:35:17;;;;;;;7.40;2.05;;;9.40;99.90;;;;;;4973205;28;20342;-70
2023/11/11 10:37:47;;;;;;;2.28;2.08;;;9.40;99.90;;;;;;4974670;28;20217;-70
2023/11/11 10:40:16;;;;;;;5.28;2.88;;;9.40;99.90;;;;;;4969170;28;20644;-70
2023/11/11 10:42:45;;;;;;;6.05;2.65;;;9.40;99.90;;;;;;4975208;28;20215;-72
2023/11/11 10:45:15;;;;;;;1.90;1.70;;;9.40;99.90;;;;;;4974693;28;20229;-71
2023/11/11 10:47:42;;;;;;;4.28;2.50;;;9.20;99.90;;;;;;4970046;28;20606;-74
2023/11/11 10:50:11;;;;;;;3.13;2.08;;;9.30;99.90;;;;;;4976158;28;20230;-73
2023/11/11 10:52:40;;;;;;;3.75;1.75;;;9.40;99.90;;;;;;4969805;28;20218;-73
2023/11/11 10:55:11;;;;;;;1.30;1.20;;;9.50;99.90;;;;;;4973401;28;20226;-71
2023/11/11 10:57:40;;;;;;;1.45;1.00;;;9.50;99.90;;;;;;4976617;28;20571;-72
2023/11/11 11:00:16;;;;;;;1.33;0.70;;;9.40;99.90;;;;;;4971229;28;20672;-73
2023/11/11 11:02:46;;;;;;;3.55;0.70;;;9.50;99.90;;;;;;4969024;28;20249;-70
2023/11/11 11:05:16;;;;;;;1.30;0.80;;;9.50;99.90;;;;;;4974142;28;20226;-73
2023/11/11 11:07:52;;;;;;;1.50;1.40;;;9.50;99.90;;;;;;4971288;28;20544;-72
2023/11/11 11:10:29;;;;;;;1.63;1.08;;;9.40;99.90;;;;;;4978737;28;20218;-72
2023/11/11 11:13:01;;;;;;;1.52;0.85;;;9.20;99.90;;;;;;4965816;28;20198;-74
2023/11/11 11:15:29;;;;;;;1.33;1.05;;;8.90;99.90;;;;;;4971950;28;20226;-70
2023/11/11 11:17:55;;;;;;;2.45;1.05;;;8.80;99.90;;;;;;4974539;28;20661;-74
2023/11/11 11:20:26;;;;;;;2.42;0.98;;;8.80;99.90;;;;;;4969111;28;20285;-73
2023/11/11 11:23:00;;;;;;;2.80;1.20;;;9.00;99.90;;;;;;4965121;28;20206;-71
2023/11/11 11:25:38;;;;;;;1.25;1.02;;;9.20;99.90;;;;;;4980955;28;20236;-83
2023/11/11 11:28:24;;;;;;;1.67;0.73;;;9.10;99.90;;;;;;4967931;28;20555;-75
2023/11/11 11:30:54;;;;;;;1.20;1.10;;;9.30;99.90;;;;;;4974876;28;20222;-71
2023/11/11 11:33:23;;;;;;;1.92;1.20;;;9.30;99.90;;;;;;5029982;23;20239;-82
2023/11/11 11:35:52;;;;;;;2.35;1.08;;;9.20;99.90;;;;;;5035135;28;20201;-84
2023/11/11 11:41:34;;;;;;;1.30;1.05;;;9.20;99.90;;;;;;5036458;28;20203;-84
2023/11/11 11:44:01;;;;;;;1.38;1.27;;;9.10;99.90;;;;;;5033954;28;20225;-85
2023/11/11 11:46:27;;;;;;;4.07;1.88;;;9.30;99.90;;;;;;5040673;28;20292;-84
2023/11/11 11:48:55;;;;;;;1.77;1.67;;;9.20;99.90;;;;;;5033314;28;20201;-83
2023/11/11 11:51:24;;;;;;;5.95;2.97;;;9.00;99.90;;;;;;5037989;28;20223;-84
2023/11/11 11:53:53;;;;;;;5.43;1.60;;;9.10;99.90;;;;;;5038109;28;20224;-84
2023/11/11 11:56:32;;;;;;;1.92;1.55;;;9.20;99.90;;;;;;5038689;28;20214;-84
2023/11/11 11:59:02;;;;;;;1.50;1.40;;;9.20;99.90;;;;;;5038813;28;20219;-83
2023/11/11 12:01:30;;;;;;;3.00;1.50;;;9.30;99.90;;;;;;5045363;28;20264;-83
2023/11/11 12:03:58;;;;;;;2.45;1.85;;;9.40;99.90;;;;;;5051298;28;20276;-83
2023/11/11 12:06:27;;;;;;;6.68;3.78;;;9.60;99.90;;;;;;5064555;28;20219;-82
2023/11/11 12:08:55;;;;;;;4.28;1.73;;;9.60;99.90;;;;;;5044860;28;20201;-84
2023/11/11 12:11:24;;;;;;;5.10;3.10;;;9.60;99.90;;;;;;5042380;28;20209;-84
2023/11/11 12:13:53;;;;;;;2.20;1.60;;;9.70;99.90;;;;;;5047167;28;20213;-83
2023/11/11 12:16:21;;;;;;;2.10;1.90;;;9.80;99.90;;;;;;5052854;28;20266;-83
2023/11/11 12:18:57;;;;;;;6.80;1.95;;;9.90;99.90;;;;;;5048858;28;20209;-84
2023/11/11 12:21:26;;;;;;;6.50;1.73;;;10.00;99.90;;;;;;5038288;28;20204;-83
2023/11/11 12:23:54;;;;;;;1.70;1.60;;;10.00;99.90;;;;;;5039026;28;20232;-84
2023/11/11 12:26:21;;;;;;;1.50;1.40;;;10.00;99.90;;;;;;5041391;28;20227;-85
2023/11/11 12:28:49;;;;;;;1.55;1.10;;;9.90;99.90;;;;;;5031843;28;20218;-85
2023/11/11 12:31:17;;;;;;;1.60;1.20;;;9.80;99.90;;;;;;5048494;28;20239;-85
2023/11/11 12:33:44;;;;;;;2.90;1.15;;;9.80;99.90;;;;;;5032863;28;20233;-86
2023/11/11 12:36:13;;;;;;;1.77;1.20;;;9.70;99.90;;;;;;5047666;28;20209;-84
2023/11/11 12:38:40;;;;;;;1.45;1.15;;;9.80;99.90;;;;;;5029342;28;20229;-85
2023/11/11 12:41:11;;;;;;;2.15;0.93;;;9.70;99.90;;;;;;5033797;28;20205;-85
2023/11/11 12:43:38;;;;;;;1.40;1.17;;;9.50;99.90;;;;;;5033554;28;20269;-85
2023/11/11 12:46:06;;;;;;;4.15;3.03;;;9.50;99.90;;;;;;5044285;28;20290;-83
2023/11/11 12:48:36;;;;;;;2.08;1.48;;;9.50;99.90;;;;;;5044411;28;20291;-85
2023/11/11 12:51:04;;;;;;;1.63;0.88;;;9.40;99.90;;;;;;5035137;28;20263;-84
2023/11/11 12:53:31;;;;;;;3.75;1.55;;;9.40;99.90;;;;;;5036092;28;20316;-85
2023/11/11 12:56:06;;;;;;;6.45;1.50;;;9.40;99.90;;;;;;5036630;28;20201;-85